createdAt,value
2022-09-11T00:02:13.316Z,18.05
2022-09-11T00:07:37.747Z,17.99
2022-09-11T00:13:00.755Z,17.95
2022-09-11T00:18:24.021Z,17.93
2022-09-11T00:23:49.747Z,17.94
2022-09-11T00:29:12.951Z,17.92
2022-09-11T00:34:36.002Z,17.85
2022-09-11T00:40:00.420Z,17.82
2022-09-11T00:45:26.870Z,17.76
2022-09-11T00:50:50.735Z,17.72
2022-09-11T00:56:15.176Z,17.73
2022-09-11T01:01:38.282Z,17.69
2022-09-11T01:07:02.509Z,17.53
2022-09-11T01:12:32.720Z,17.62
2022-09-11T01:18:02.945Z,17.60
2022-09-11T01:23:37.175Z,17.52
2022-09-11T01:29:04.388Z,17.30
2022-09-11T01:34:31.798Z,17.22
2022-09-11T01:40:01.688Z,17.19
2022-09-11T01:45:31.230Z,17.03
2022-09-11T01:50:55.818Z,17.13
2022-09-11T01:56:22.858Z,17.08
2022-09-11T02:01:52.082Z,17.06
2022-09-11T02:07:17.572Z,17.03
2022-09-11T02:12:54.836Z,16.96
2022-09-11T02:18:24.721Z,16.89
2022-09-11T02:23:49.684Z,16.87
2022-09-11T02:29:13.060Z,16.84
2022-09-11T02:34:38.470Z,16.81
2022-09-11T02:40:14.947Z,16.78
2022-09-11T02:45:49.031Z,16.63
2022-09-11T02:51:20.783Z,16.71
2022-09-11T02:56:47.754Z,16.55
2022-09-11T03:02:13.176Z,16.58
2022-09-11T03:07:38.134Z,16.56
2022-09-11T03:13:01.365Z,16.62
2022-09-11T03:18:27.661Z,16.60
2022-09-11T03:23:52.296Z,16.57
2022-09-11T03:29:15.710Z,16.44
2022-09-11T03:34:39.649Z,16.48
2022-09-11T03:40:06.817Z,16.40
2022-09-11T03:45:30.251Z,16.39
2022-09-11T03:50:54.583Z,16.36
2022-09-11T03:56:19.362Z,16.30
2022-09-11T04:01:44.188Z,16.22
2022-09-11T04:07:07.512Z,16.23
2022-09-11T04:12:32.028Z,16.18
2022-09-11T04:17:55.577Z,16.07
2022-09-11T04:23:19.573Z,16.01
2022-09-11T04:28:47.617Z,15.97
2022-09-11T04:34:11.705Z,15.96
2022-09-11T04:39:35.840Z,15.94
2022-09-11T04:45:00.555Z,15.80
2022-09-11T04:50:24.105Z,15.81
2022-09-11T04:56:07.790Z,15.82
2022-09-11T05:01:38.430Z,15.73
2022-09-11T05:07:02.634Z,15.69
2022-09-11T05:12:25.823Z,15.09
2022-09-11T05:17:51.370Z,15.61
2022-09-11T05:23:17.059Z,15.76
2022-09-11T05:28:40.327Z,15.59
2022-09-11T05:34:05.412Z,15.67
2022-09-11T05:39:28.900Z,15.58
2022-09-11T05:44:53.074Z,15.66
2022-09-11T05:50:18.642Z,15.72
2022-09-11T05:55:41.749Z,15.60
2022-09-11T06:01:10.543Z,15.77
2022-09-11T06:06:36.411Z,15.82
2022-09-11T06:12:00.865Z,15.90
2022-09-11T06:17:24.739Z,16.00
2022-09-11T06:22:50.547Z,16.00
2022-09-11T06:28:13.952Z,16.05
2022-09-11T06:33:38.971Z,16.12
2022-09-11T06:39:03.431Z,16.23
2022-09-11T06:44:27.438Z,16.33
2022-09-11T06:49:52.252Z,16.83
2022-09-11T06:55:27.645Z,17.39
2022-09-11T07:00:56.452Z,17.79
2022-09-11T07:06:21.999Z,18.00
2022-09-11T07:11:46.897Z,18.17
2022-09-11T07:17:10.301Z,18.55
2022-09-11T07:22:36.235Z,19.04
2022-09-11T07:28:00.803Z,19.48
2022-09-11T07:33:24.221Z,19.84
2022-09-11T07:38:50.945Z,20.15
2022-09-11T07:44:16.322Z,20.32
2022-09-11T07:49:39.403Z,20.56
2022-09-11T07:55:03.555Z,20.79
2022-09-11T08:00:36.441Z,20.82
2022-09-11T08:06:13.184Z,20.83
2022-09-11T08:11:38.750Z,20.75
2022-09-11T08:17:03.451Z,20.44
2022-09-11T08:22:28.171Z,20.66
2022-09-11T08:27:52.801Z,20.69
2022-09-11T08:33:20.199Z,20.67
2022-09-11T08:38:47.140Z,20.85
2022-09-11T08:44:18.350Z,21.22
2022-09-11T08:49:45.080Z,21.63
2022-09-11T08:55:13.977Z,21.84
2022-09-11T09:00:41.307Z,21.67
2022-09-11T09:06:21.498Z,21.21
2022-09-11T09:11:52.688Z,21.03
2022-09-11T09:17:21.818Z,21.67
2022-09-11T09:22:49.707Z,22.16
2022-09-11T09:28:20.211Z,22.39
2022-09-11T09:33:47.092Z,22.13
2022-09-11T09:39:14.699Z,22.55
2022-09-11T09:44:55.207Z,22.98
2022-09-11T09:50:20.793Z,23.26
2022-09-11T09:55:47.493Z,23.39
2022-09-11T10:01:45.328Z,23.24
2022-09-11T10:07:11.523Z,22.99
2022-09-11T10:12:36.477Z,23.36
2022-09-11T10:18:23.326Z,22.64
2022-09-11T10:23:48.062Z,21.96
2022-09-11T10:29:16.502Z,21.55
2022-09-11T10:34:41.982Z,21.41
2022-09-11T10:40:09.065Z,21.68
2022-09-11T10:45:33.873Z,22.56
2022-09-11T10:51:05.907Z,23.05
2022-09-11T10:56:29.204Z,23.10
2022-09-11T11:01:54.211Z,23.42
2022-09-11T11:07:28.245Z,23.69
2022-09-11T11:13:01.277Z,23.79
2022-09-11T11:18:35.637Z,23.99
2022-09-11T11:24:09.528Z,23.68
2022-09-11T11:29:45.332Z,23.66
2022-09-11T11:35:21.952Z,23.25
2022-09-11T11:40:49.340Z,23.16
2022-09-11T11:46:18.198Z,23.39
2022-09-11T11:51:50.687Z,22.94
2022-09-11T11:57:17.394Z,22.53
2022-09-11T12:02:47.026Z,22.48
2022-09-11T12:08:14.479Z,22.49
2022-09-11T12:13:38.661Z,22.55
2022-09-11T12:19:07.629Z,22.48
2022-09-11T12:24:58.923Z,22.42
2022-09-11T12:30:25.720Z,22.12
2022-09-11T12:35:51.501Z,22.31
2022-09-11T12:41:17.668Z,22.77
2022-09-11T12:47:16.584Z,23.00
2022-09-11T12:52:47.819Z,22.73
2022-09-11T12:58:28.589Z,22.17
2022-09-11T13:03:59.253Z,22.53
2022-09-11T13:09:24.224Z,22.57
2022-09-11T13:14:50.213Z,22.74
2022-09-11T13:20:22.536Z,22.65
2022-09-11T13:25:45.959Z,22.72
2022-09-11T13:31:19.393Z,23.17
2022-09-11T13:36:42.858Z,23.48
2022-09-11T13:42:11.363Z,23.60
2022-09-11T13:47:42.376Z,23.91
2022-09-11T13:53:05.933Z,23.86
2022-09-11T13:58:35.672Z,23.67
2022-09-11T14:04:00.270Z,23.55
2022-09-11T14:09:24.185Z,23.17
2022-09-11T14:14:53.126Z,23.31
2022-09-11T14:20:20.187Z,23.38
2022-09-11T14:26:08.229Z,23.46
2022-09-11T14:31:34.954Z,23.19
2022-09-11T14:37:04.501Z,23.20
2022-09-11T14:42:30.221Z,23.20
2022-09-11T14:47:53.671Z,23.02
2022-09-11T14:53:27.831Z,23.13
2022-09-11T14:58:50.888Z,23.58
2022-09-11T15:04:19.469Z,23.75
2022-09-11T15:09:44.162Z,23.76
2022-09-11T15:15:08.117Z,23.56
2022-09-11T15:20:31.137Z,23.74
2022-09-11T15:26:01.540Z,23.69
2022-09-11T15:31:24.912Z,23.66
2022-09-11T15:36:50.780Z,23.63
2022-09-11T15:42:15.270Z,23.40
2022-09-11T15:47:38.341Z,23.54
2022-09-11T15:53:01.867Z,23.70
2022-09-11T15:58:26.883Z,23.58
2022-09-11T16:03:53.449Z,23.50
2022-09-11T16:09:18.563Z,23.50
2022-09-11T16:14:46.639Z,23.54
2022-09-11T16:20:11.461Z,23.32
2022-09-11T16:25:42.519Z,23.40
2022-09-11T16:31:07.897Z,23.31
2022-09-11T16:36:33.618Z,23.21
2022-09-11T16:41:56.849Z,23.14
2022-09-11T16:47:21.429Z,23.07
2022-09-11T16:52:47.504Z,23.00
2022-09-11T16:58:11.224Z,23.06
2022-09-11T17:03:40.765Z,22.96
2022-09-11T17:09:05.086Z,22.77
2022-09-11T17:14:29.417Z,22.76
2022-09-11T17:19:54.084Z,22.65
2022-09-11T17:25:17.181Z,22.57
2022-09-11T17:30:40.327Z,22.55
2022-09-11T17:36:05.627Z,22.41
2022-09-11T17:41:28.981Z,22.29
2022-09-11T17:46:53.015Z,22.15
2022-09-11T17:52:19.036Z,22.11
2022-09-11T17:57:44.324Z,21.89
2022-09-11T18:03:08.065Z,21.93
2022-09-11T18:08:33.209Z,21.65
2022-09-11T18:13:56.394Z,21.64
2022-09-11T18:19:21.167Z,21.62
2022-09-11T18:24:45.693Z,21.42
2022-09-11T18:30:10.253Z,21.38
2022-09-11T18:35:34.043Z,21.28
2022-09-11T18:41:00.167Z,21.26
2022-09-11T18:46:23.571Z,21.16
2022-09-11T18:51:46.685Z,20.94
2022-09-11T18:57:11.110Z,20.85
2022-09-11T19:02:36.271Z,20.74
2022-09-11T19:08:01.187Z,20.66
2022-09-11T19:13:27.747Z,20.64
2022-09-11T19:18:50.743Z,20.47
2022-09-11T19:24:13.894Z,20.32
2022-09-11T19:29:38.293Z,20.20
2022-09-11T19:35:01.994Z,20.24
2022-09-11T19:40:26.314Z,20.11
2022-09-11T19:45:50.931Z,20.19
2022-09-11T19:51:16.062Z,20.00
2022-09-11T19:56:39.565Z,19.95
2022-09-11T20:02:04.081Z,19.95
2022-09-11T20:07:27.211Z,19.86
2022-09-11T20:12:50.522Z,19.82
2022-09-11T20:18:15.746Z,19.82
2022-09-11T20:23:40.065Z,19.77
2022-09-11T20:29:06.772Z,19.62
2022-09-11T20:34:31.460Z,19.58
2022-09-11T20:39:54.474Z,19.56
2022-09-11T20:45:17.702Z,19.53
2022-09-11T20:50:42.156Z,19.49
2022-09-11T20:56:28.947Z,19.34
2022-09-11T21:01:52.021Z,19.32
2022-09-11T21:07:16.468Z,19.28
2022-09-11T21:12:39.511Z,19.24
2022-09-11T21:18:02.526Z,19.19
2022-09-11T21:23:26.939Z,19.13
2022-09-11T21:28:50.032Z,19.00
2022-09-11T21:34:13.125Z,18.93
2022-09-11T21:39:38.129Z,18.81
2022-09-11T21:45:01.206Z,18.88
2022-09-11T21:50:24.252Z,18.86
2022-09-11T21:55:49.494Z,18.70
2022-09-11T22:01:13.688Z,18.81
2022-09-11T22:06:38.305Z,18.75
2022-09-11T22:12:03.317Z,18.67
2022-09-11T22:17:26.666Z,18.66
2022-09-11T22:22:49.909Z,18.67
2022-09-11T22:28:14.565Z,18.66
2022-09-11T22:33:38.823Z,18.60
2022-09-11T22:39:04.878Z,18.55
2022-09-11T22:44:29.328Z,18.51
2022-09-11T22:49:52.742Z,18.46
2022-09-11T22:55:15.902Z,18.44
2022-09-11T23:00:41.385Z,18.39
2022-09-11T23:06:22.328Z,18.37
2022-09-11T23:11:46.474Z,18.35
2022-09-11T23:17:10.893Z,18.29
2022-09-11T23:22:34.067Z,18.23
2022-09-11T23:27:57.130Z,17.99
2022-09-11T23:33:21.670Z,18.12
2022-09-11T23:38:48.904Z,18.13
2022-09-11T23:44:12.095Z,18.05
2022-09-11T23:49:36.780Z,18.02
2022-09-11T23:54:59.914Z,18.00
